Tiempo atmosférico en la estación meteorológica de Rascafría, Madrid (1159 m.)



Fecha
DESCASC
Temp. máxima en grados centígrados (hora)
DESCASC
Temp. mínima en grados centígrados (hora)
DESCASC
Temp. media en grados centígrados
DESCASC
Racha de viento máxima en m/sg (hora)
DESCASC
Velocidad máxima media en intervalos de 10 minutos(hora)
DESCASC
Precipitaciones diarias en mm
DESCASC
Precipitaciones de 00:00 a 06:00 en mm
DESCASC
Precipitaciones de 06:00 a 12:00 en mm
DESCASC
Precipitaciones de 12:00 a 18:00 en mm
DESCASC
Precipitaciones de 18:00 a 24:00 en mm
DESCASC
16-01-2020 11.7 (15:20) 0.9 (07:30) 6.3 10.28 (16:30) 4.17 (17:50) 0.4 0 0.2 0.2 0
15-01-2020 3.8 (17:20) -3.3 (00:20) 0.3 2.22 (04:10) 0.83 (04:10) 0 0 0 0 0
14-01-2020 8.2 (14:50) -7.3 (07:50) 0.4 3.89 (15:10) 1.67 (15:10) 0 0 0 0 0
13-01-2020 9.9 (14:40) -5.8 (06:30) 2 3.06 (15:30) 1.39 (15:30) 0 0 0 0 0
12-01-2020 14.8 (14:50) -7.9 (-00:0) 3.5 2.5 (15:10) 1.39 (13:40) 0 0 0 0 0
11-01-2020 12.1 (16:30) -7.4 (-00:0) 2.4 2.5 (14:00) 1.11 (14:00) 0 0 0 0 0
10-01-2020 8.6 (15:50) -4.2 (-00:0) 2.2 11.67 (13:00) 5 (13:00) 0 0 0 0 0
09-01-2020 13.7 (15:50) -2.7 (-00:0) 5.5 14.44 (19:20) 4.72 (13:50) 0 0 0 0 0
08-01-2020 19.1 (14:10) -1.2 (-00:0) 9 4.72 (16:10) 2.22 (15:40) 0 0 0 0 0
07-01-2020 18.8 (15:00) -3.8 (-00:0) 7.5 4.17 (15:30) 1.67 (15:10) 0 0 0 0 0
06-01-2020 16.9 (15:20) -4 (-00:0) 6.4 2.78 (20:00) 1.11 (13:50) 0 0 0 0 0
05-01-2020 17.5 (15:00) -4.8 (-00:0) 6.3 2.5 (13:50) 1.11 (13:50) 0 0 0 0 0
04-01-2020 13.1 (15:10) -4.3 (-00:0) 4.4 3.06 (13:20) 1.39 (15:40) 0 0 0 0 0
03-01-2020 11.6 (15:00) -3.6 (-00:0) 4 4.17 (16:10) 1.39 (15:10) 0 0 0 0 0
02-01-2020 15.7 (15:00) -4.6 (-00:0) 5.5 2.22 (15:30) 1.11 (14:40) 0 0 0 0 0
01-01-2020 17.9 (15:20) -4.3 (-00:0) 6.8 2.5 (15:30) 1.39 (15:30) 0 0 0 0 0
31-12-2019 17.8 (15:00) -2.3 (-00:0) 7.7 2.78 (14:40) 1.39 (14:40) 0 0 0 0 0
30-12-2019 -- (--) -- (--) -- -- (--) -- (--) -- 0 0 -- 0
29-12-2019 18.8 (15:00) -3.6 (-00:0) 7.6 2.22 (14:40) 1.11 (14:40) 0 0 0 0 0
28-12-2019 20.9 (14:20) -2.5 (-00:0) 9.2 4.72 (15:00) 2.5 (15:00) 0 0 0 0 0
27-12-2019 18.6 (15:20) -4.3 (-00:0) 7.2 1.39 (01:30) 0.83 (22:50) 0 0 0 0 0
26-12-2019 17.6 (14:50) -2.2 (-00:0) 7.7 5.83 (01:40) 1.67 (01:50) 0 0 0 0 0
25-12-2019 18.9 (15:20) -0.2 (00:00) 9.3 5.83 (17:00) 2.5 (16:00) 0.2 0 0 0.2 0
24-12-2019 17.9 (13:20) 1.9 (00:00) 9.9 6.67 (00:30) 1.94 (00:40) 0 0 0 0 0
23-12-2019 11.8 (12:00) 4.5 (00:00) 8.2 16.11 (04:30) 6.11 (00:30) 0.6 0.2 0.2 0.2 0
22-12-2019 9.6 (13:30) 5.3 (00:00) 7.5 23.89 (00:50) 8.89 (00:50) 21 4.6 4.4 7.6 4.4
21-12-2019 15.3 (12:20) 6.8 (00:00) 11.1 25.28 (20:20) 7.78 (23:00) 12.2 1.8 7.6 0.6 2.2
20-12-2019 12.2 (20:40) 5.2 (00:00) 8.7 20.56 (21:20) 6.11 (23:00) 58.6 23.8 13.6 14.2 7

Gráficas

Temp. máximas Temp. mínimas Temp. medias Precipitaciones Rachas de viento máximas Velocidades máximas media en intervalos de 10 minutos

Datos horarios

Fecha y hora oficial Temperatura (ºC) Velocidad del viento (km/h) Dirección del viento Racha (km/h) Dirección de racha Precipitación (mm) Presión (hPa) Tendencia (hPa) Humedad (%)
2020-01-18 23:00:00 4 13 Oeste 39 Oeste 2.8 -- -- 75
2020-01-18 22:00:00 5.2 15 Oeste 43 Oeste 0.2 -- -- 82
2020-01-18 21:00:00 5.2 14 Oeste 47 Noroeste 3.2 -- -- 83
2020-01-18 20:00:00 6.9 10 Sudoeste 37 Oeste 0 -- -- 78
2020-01-18 19:00:00 3.5 2 Nordeste 7 Nordeste 0.2 -- -- 96
2020-01-18 18:00:00 3.6 0 Calma 4 Norte 0 -- -- 93
2020-01-18 17:00:00 3.8 0 Calma 6 Nordeste 0.2 -- -- 91
2020-01-18 16:00:00 4 2 Nordeste 8 Nordeste 0.2 -- -- 90
2020-01-18 15:00:00 3.6 2 Norte 5 Este 0.2 -- -- 90
2020-01-18 14:00:00 3.2 0 Calma 4 Este 1.4 -- -- 92
2020-01-18 13:00:00 2.5 0 Calma 4 Nordeste 1 -- -- 91
2020-01-18 12:00:00 1.6 0 Calma 3 Nordeste 0.8 -- -- 92
2020-01-18 11:00:00 1.3 0 Calma 2 Sudeste 0.2 -- -- 92
2020-01-18 10:00:00 0.8 0 Calma 3 Sudeste 0 -- -- 88
2020-01-18 09:00:00 0.7 0 Calma 3 Sudeste 0 -- -- 84
2020-01-18 08:00:00 0.7 2 Sur 22 Sudeste 0 -- -- 80
2020-01-18 07:00:00 0.3 3 Nordeste 10 Sudeste 0 -- -- 82
2020-01-18 06:00:00 -0.1 3 Este 8 Este 0 -- -- 81
2020-01-18 05:00:00 -0.6 2 Sur 5 Sudeste 0 -- -- 85
2020-01-18 04:00:00 -1.2 2 Sudoeste 5 Sudoeste 0 -- -- 86
2020-01-18 03:00:00 -1.4 0 Calma 8 Sur 0 -- -- 85
2020-01-18 02:00:00 -1.2 2 Sudeste 6 Este 0 -- -- 87
2020-01-18 01:00:00 -1.3 0 Calma 2 Sudoeste 0 -- -- 89
2020-01-18 00:00:00 -1.4 0 Calma 3 Sudoeste 0 -- -- 89
2020-01-17 23:00:00 -1.7 0 Calma 4 Oeste 0 -- -- 88
2020-01-17 22:00:00 -1.9 0 Calma 6 Oeste 0 -- -- 88
2020-01-17 21:00:00 -1.7 3 Sudoeste 5 Sudoeste 0 -- -- 89
2020-01-17 20:00:00 0 2 Sudoeste 6 Sur 0 -- -- 83
2020-01-17 19:00:00 3.2 3 Sudoeste 8 Sur 0 -- -- 73
2020-01-17 18:00:00 5 2 Sudeste 19 Sudeste 0.2 -- -- 67
2020-01-17 17:00:00 7.1 3 Sudoeste 22 Oeste 0.2 -- -- 59
2020-01-17 16:00:00 7.7 8 Noroeste 41 Sudoeste 0.2 -- -- 57
2020-01-17 15:00:00 7.7 16 Oeste 38 Noroeste 0.2 -- -- 61
2020-01-17 14:00:00 6.9 19 Oeste 45 Oeste 0.2 -- -- 63
2020-01-17 13:00:00 6.4 14 Oeste 42 Oeste 0.2 -- -- 75
2020-01-17 12:00:00 5.9 15 Oeste 40 Noroeste 0.4 -- -- 79
2020-01-17 11:00:00 5.2 14 Oeste 45 Oeste 0.2 -- -- 87
2020-01-17 10:00:00 5.3 20 Oeste 44 Noroeste 0 -- -- 84
2020-01-17 09:00:00 5.5 17 Oeste 45 Oeste 0 -- -- 79
2020-01-17 08:00:00 5.8 17 Oeste 38 Noroeste 0 -- -- 72
2020-01-17 07:00:00 5.7 11 Oeste 38 Oeste 0 -- -- 64
2020-01-17 06:00:00 5.6 13 Oeste 31 Oeste 0 -- -- 61
2020-01-17 05:00:00 5.4 13 Oeste 33 Oeste 0 -- -- 64
2020-01-17 04:00:00 5.1 10 Oeste 28 Oeste 0 -- -- 70
2020-01-17 03:00:00 1.3 3 Sudoeste 7 Este 0.2 -- -- 96
2020-01-17 02:00:00 1.8 0 Calma 9 Oeste 0.2 -- -- 90
2020-01-17 01:00:00 4.3 3 Este 13 Este 0.2 -- -- 87
2020-01-17 00:00:00 5.1 0 Calma 7 Nordeste 0 -- -- 85
2020-01-16 23:00:00 6.4 0 Calma 13 Sudoeste 0 -- -- 73
2020-01-16 22:00:00 7.8 6 Sur 23 Sur 0 -- -- 57
2020-01-16 21:00:00 8 10 Sudeste 25 Sudeste 0 -- -- 49
2020-01-16 20:00:00 7.7 6 Norte 35 Sur 0 -- -- 56
2020-01-16 19:00:00 7.6 8 Sur 33 Sudeste 0 -- -- 53
2020-01-16 18:00:00 7.8 10 Sur 30 Este 0 -- -- 50
2020-01-16 17:00:00 9.7 9 Sur 37 Sur 0.2 -- -- 45
2020-01-16 16:00:00 11.3 7 Sudoeste 20 Sudeste 0 -- -- 45
2020-01-16 15:00:00 10.9 5 Este 14 Norte 0 -- -- 61
2020-01-16 14:00:00 6.8 4 Nordeste 12 Nordeste 0 -- -- 86
2020-01-16 13:00:00 5.4 3 Nordeste 7 Nordeste 0 -- -- 90
2020-01-16 12:00:00 3.1 0 Calma 5 Sudeste 0 -- -- 97
2020-01-16 11:00:00 2.4 0 Calma 5 Este 0 -- -- 97
2020-01-16 10:00:00 1.9 0 Calma 3 Oeste 0.2 -- -- 97
2020-01-16 09:00:00 1.3 2 Noroeste 4 Noroeste 0 -- -- 98
2020-01-16 08:00:00 0.9 0 Calma 5 Sur 0 -- -- 97
2020-01-16 07:00:00 1 0 Calma 3 Sudoeste 0 -- -- 97
2020-01-16 06:00:00 1.3 0 Calma 3 Nordeste 0 -- -- 96
2020-01-16 05:00:00 1.6 0 Calma 2 Sudoeste 0 -- -- 96
2020-01-16 04:00:00 1.9 0 Calma 4 Este 0 -- -- 96
2020-01-16 03:00:00 2 0 Calma 4 Sudeste 0 -- -- 94
2020-01-16 02:00:00 2.2 0 Calma 3 Sur 0 -- -- 94
2020-01-16 01:00:00 2.2 0 Calma 2 Sudoeste 0 -- -- 94
2020-01-16 00:00:00 2.3 0 Calma 2 Oeste 0 -- -- 94
2020-01-15 23:00:00 2.1 0 Calma 2 Oeste 0 -- -- 93
2020-01-15 22:00:00 2.2 0 Calma 2 Noroeste 0 -- -- 92
2020-01-15 21:00:00 2.3 0 Calma 2 Sudoeste 0 -- -- 92
2020-01-15 20:00:00 2.5 0 Calma 2 Sudoeste 0 -- -- 92
2020-01-15 19:00:00 2.8 0 Calma 2 Norte 0 -- -- 90
2020-01-15 18:00:00 3.5 0 Calma 3 Noroeste 0 -- -- 88
2020-01-15 17:00:00 3.7 0 Calma 4 Nordeste 0 -- -- 88
2020-01-15 16:00:00 3.5 0 Calma 4 Nordeste 0 -- -- 88
2020-01-15 15:00:00 3.5 0 Calma 4 Nordeste 0 -- -- 88
2020-01-15 14:00:00 3.4 2 Nordeste 4 Norte 0 -- -- 88
2020-01-15 13:00:00 2.5 0 Calma 3 Sur 0 -- -- 88
2020-01-15 12:00:00 2 0 Calma 7 Este 0 -- -- 87
2020-01-15 11:00:00 0.9 0 Calma 5 Nordeste 0 -- -- 90
2020-01-15 10:00:00 -0.2 0 Calma 3 Norte 0 -- -- 93
2020-01-15 09:00:00 -0.9 0 Calma 3 Norte 0 -- -- 95
2020-01-15 08:00:00 -1.5 0 Calma 2 Sudoeste 0 -- -- 95
2020-01-15 07:00:00 -2.2 0 Calma 3 Este 0 -- -- 95
2020-01-15 06:00:00 -2.5 0 Calma 5 Oeste 0 -- -- 94
2020-01-15 05:00:00 -2.7 2 Sudoeste 8 Nordeste 0 -- -- 94
2020-01-15 04:00:00 -2.7 2 Nordeste 5 Nordeste 0 -- -- 94
2020-01-15 03:00:00 -2.4 0 Calma 5 Oeste 0 -- -- 93
2020-01-15 02:00:00 -2.5 0 Calma 4 Sudoeste 0 -- -- 93
2020-01-15 01:00:00 -3.2 0 Calma 4 Oeste 0 -- -- 93
2020-01-15 00:00:00 -3.1 0 Calma 5 Noroeste 0 -- -- 92
2020-01-14 23:00:00 -2.8 0 Calma 2 Sur 0 -- -- 93
2020-01-14 22:00:00 -3.7 0 Calma 4 Sudoeste 0 -- -- 92
2020-01-14 21:00:00 -3.7 0 Calma 2 Sudoeste 0 -- -- 92
2020-01-14 20:00:00 -3.2 0 Calma 4 Sudoeste 0 -- -- 88
2020-01-14 19:00:00 -2.1 0 Calma 5 Sur 0 -- -- 84
2020-01-14 18:00:00 1.1 2 Sudoeste 6 Este 0 -- -- 74
2020-01-14 17:00:00 6.1 3 Este 10 Este 0 -- -- 59
2020-01-14 16:00:00 7.3 5 Este 14 Nordeste 0 -- -- 52
2020-01-14 15:00:00 8 5 Nordeste 11 Este 0 -- -- 52
2020-01-14 14:00:00 7.1 4 Nordeste 12 Este 0 -- -- 51
2020-01-14 13:00:00 5.8 3 Este 9 Este 0 -- -- 56
2020-01-14 12:00:00 3.2 3 Este 6 Nordeste 0 -- -- 66
2020-01-14 11:00:00 0.3 0 Calma 4 Este 0 -- -- 78
2020-01-14 10:00:00 -4.1 0 Calma 3 Oeste 0 -- -- 92
2020-01-14 09:00:00 -7 0 Calma 6 Sur 0 -- -- 91
2020-01-14 08:00:00 -7.3 0 Calma 3 Sudoeste 0 -- -- 92
2020-01-14 07:00:00 -7 0 Calma 3 Sudoeste 0 -- -- 92
2020-01-14 06:00:00 -6.7 0 Calma 3 Sudoeste 0 -- -- 93
2020-01-14 05:00:00 -6.5 2 Sudoeste 4 Sur 0 -- -- 92
2020-01-14 04:00:00 -6.4 0 Calma 4 Noroeste 0 -- -- 92
2020-01-14 03:00:00 -6 0 Calma 5 Oeste 0 -- -- 91
2020-01-14 02:00:00 -5.7 0 Calma 5 Noroeste 0 -- -- 92
2020-01-14 01:00:00 -5.5 0 Calma 3 Sudoeste 0 -- -- 91
2020-01-14 00:00:00 -4.8 0 Calma 4 Oeste 0 -- -- 90
2020-01-13 23:00:00 -4.6 0 Calma 3 Sudoeste 0 -- -- 89
2020-01-13 22:00:00 -4 0 Calma 2 Sudoeste 0 -- -- 87
2020-01-13 21:00:00 -3.3 0 Calma 3 Sur 0 -- -- 85
2020-01-13 20:00:00 -2.2 0 Calma 4 Oeste 0 -- -- 80
2020-01-13 19:00:00 -0.6 0 Calma 3 Sudoeste 0 -- -- 73
2020-01-13 18:00:00 3 0 Calma 2 Nordeste 0 -- -- 61
2020-01-13 17:00:00 7.9 0 Calma 9 Este 0 -- -- 43
2020-01-13 16:00:00 8.6 0 Calma 11 Nordeste 0 -- -- 37
2020-01-13 15:00:00 9.3 3 Nordeste 8 Este 0 -- -- 31
2020-01-13 14:00:00 8.7 2 Norte 9 Este 0 -- -- 34
2020-01-13 13:00:00 7.7 4 Nordeste 6 Nordeste 0 -- -- 33
2020-01-13 12:00:00 4.7 0 Calma 3 Sudeste 0 -- -- 36
2020-01-13 11:00:00 0.6 0 Calma 5 Sur 0 -- -- 59
2020-01-13 10:00:00 -3.6 0 Calma 3 Sudoeste 0 -- -- 75
2020-01-13 09:00:00 -5.7 0 Calma 4 Sudoeste 0 -- -- 77
2020-01-13 08:00:00 -5.8 0 Calma 3 Sudoeste 0 -- -- 77
2020-01-13 07:00:00 -5.5 2 Oeste 3 Oeste 0 -- -- 76
2020-01-13 06:00:00 -5.5 0 Calma 5 Oeste 0 -- -- 74
2020-01-13 05:00:00 -5.4 0 Calma 6 Sur 0 -- -- 73
2020-01-13 04:00:00 -5.4 0 Calma 4 Sudoeste 0 -- -- 72
2020-01-13 03:00:00 -5.2 0 Calma 3 Oeste 0 -- -- 71
2020-01-13 02:00:00 -4.7 2 Sudoeste 4 Sudoeste 0 -- -- 70
2020-01-13 01:00:00 -4.3 2 Sudoeste 4 Sudoeste 0 -- -- 70
2020-01-13 00:00:00 -4.1 0 Calma 3 Sudoeste 0 -- -- 69
2020-01-12 23:00:00 -3.6 0 Calma 4 Oeste 0 -- -- 68
2020-01-12 22:00:00 -2.9 2 Sudoeste 4 Sudoeste 0 -- -- 62
2020-01-12 21:00:00 -2.2 0 Calma 3 Sudoeste 0 -- -- 65
2020-01-12 20:00:00 -1.5 2 Sudoeste 4 Sudoeste 0 -- -- 58
2020-01-12 19:00:00 0.3 0 Calma 4 Sudoeste 0 -- -- 62
2020-01-12 18:00:00 3.8 0 Calma 4 Sudoeste 0 -- -- 50
2020-01-12 17:00:00 14 0 Calma 5 Este 0 -- -- 26
2020-01-12 16:00:00 14.8 0 Calma 9 Este 0 -- -- 17
2020-01-12 15:00:00 14.5 4 Este 9 Este 0 -- -- 15
2020-01-12 14:00:00 13.7 3 Nordeste 9 Este 0 -- -- 10
2020-01-12 13:00:00 12.7 3 Nordeste 6 Este 0 -- -- 16
2020-01-12 12:00:00 8.8 2 Nordeste 5 Nordeste 0 -- -- 25
2020-01-12 11:00:00 3.2 0 Calma 3 Sur 0 -- -- 49
2020-01-12 10:00:00 -3.5 2 Sudoeste 5 Sudoeste 0 -- -- 58
2020-01-12 09:00:00 -7.4 0 Calma 4 Sudoeste 0 -- -- 68
2020-01-12 08:00:00 -7.5 0 Calma 4 Sudoeste 0 -- -- 71
2020-01-12 07:00:00 -7.4 2 Sudoeste 4 Sudoeste 0 -- -- 71
2020-01-12 06:00:00 -7.7 0 Calma 4 Sudoeste 0 -- -- 74
2020-01-12 05:00:00 -7.5 0 Calma 2 Sudoeste 0 -- -- 74
2020-01-12 04:00:00 -7.2 0 Calma 2 Oeste 0 -- -- 74
2020-01-12 03:00:00 -6.7 2 Sudoeste 2 Sudoeste 0 -- -- 72
2020-01-12 02:00:00 -6.3 0 Calma 2 Sudoeste 0 -- -- 66
2020-01-12 01:00:00 -6 0 Calma 3 Sudoeste 0 -- -- 71
2020-01-12 00:00:00 -5.3 0 Calma 3 Sudoeste 0 -- -- 69
2020-01-11 23:00:00 -5.1 0 Calma 3 Sudoeste 0 -- -- 69
2020-01-11 22:00:00 -4.4 0 Calma 4 Sudoeste 0 -- -- 65
2020-01-11 21:00:00 -3.8 2 Sudoeste 4 Sudoeste 0 -- -- 63
2020-01-11 20:00:00 -2.8 2 Sudoeste 3 Sudoeste 0 -- -- 60
2020-01-11 19:00:00 -1.3 0 Calma 3 Sudoeste 0 -- -- 60
2020-01-11 18:00:00 1.9 0 Calma 4 Sudoeste 0 -- -- 53
2020-01-11 17:00:00 11.3 0 Calma 6 Este 0 -- -- 33
2020-01-11 16:00:00 11.4 2 Norte 7 Este 0 -- -- 17
2020-01-11 15:00:00 11.3 3 Nordeste 7 Norte 0 -- -- 18
2020-01-11 14:00:00 11.2 4 Sudeste 9 Este 0 -- -- 17
2020-01-11 13:00:00 9.5 3 Este 7 Nordeste 0 -- -- 23
2020-01-11 12:00:00 6.1 0 Calma 4 Este 0 -- -- 33
2020-01-11 11:00:00 2.3 0 Calma 3 Este 0 -- -- 48
2020-01-11 10:00:00 -3.4 0 Calma 3 Sudoeste 0 -- -- 73
2020-01-11 09:00:00 -7.2 0 Calma 3 Sudoeste 0 -- -- 77
2020-01-11 08:00:00 -7.1 0 Calma 4 Sudoeste 0 -- -- 79
2020-01-11 07:00:00 -6.7 0 Calma 4 Sudoeste 0 -- -- 79
2020-01-11 06:00:00 -6.6 0 Calma 3 Oeste 0 -- -- 80
2020-01-11 05:00:00 -6.5 0 Calma 3 Sudoeste 0 -- -- 79
2020-01-11 04:00:00 -6.1 0 Calma 3 Oeste 0 -- -- 79
2020-01-11 03:00:00 -5.7 0 Calma 4 Oeste 0 -- -- 79
2020-01-11 02:00:00 -5.3 0 Calma 4 Sudoeste 0 -- -- 82
2020-01-11 01:00:00 -4.8 0 Calma 3 Oeste 0 -- -- 84
2020-01-11 00:00:00 -4.1 0 Calma 4 Oeste 0 -- -- 84
2020-01-10 23:00:00 -3.9 2 Sudoeste 3 Oeste 0 -- -- 83
2020-01-10 22:00:00 -3.1 2 Sudoeste 5 Noroeste 0 -- -- 81
2020-01-10 21:00:00 -2.3 2 Oeste 6 Oeste 0 -- -- 80
2020-01-10 20:00:00 -0.3 4 Sur 12 Sur 0 -- -- 72
2020-01-10 19:00:00 -0.3 3 Sudoeste 5 Oeste 0 -- -- 73
2020-01-10 18:00:00 2.5 2 Sur 5 Sudoeste 0 -- -- 65
2020-01-10 17:00:00 7.6 5 Nordeste 16 Norte 0 -- -- 46
2020-01-10 16:00:00 8.5 5 Este 22 Nordeste 0 -- -- 40
2020-01-10 15:00:00 8.3 7 Este 24 Nordeste 0 -- -- 43
2020-01-10 14:00:00 6.8 9 Norte 42 Nordeste 0 -- -- 47
2020-01-10 13:00:00 4.7 18 Norte 42 Norte 0 -- -- 57
2020-01-10 12:00:00 3 0 Calma 6 Oeste 0 -- -- 74
2020-01-10 11:00:00 1.9 0 Calma 3 Sudoeste 0 -- -- 82
2020-01-10 10:00:00 2.2 2 Nordeste 11 Este 0 -- -- 84
2020-01-10 09:00:00 2.4 2 Nordeste 18 Nordeste 0 -- -- 75
2020-01-10 08:00:00 2.8 7 Norte 18 Noroeste 0 -- -- 70
2020-01-10 07:00:00 2.6 2 Sudeste 25 Oeste 0 -- -- 70
2020-01-10 06:00:00 2.6 3 Sur 33 Sudoeste 0 -- -- 68
2020-01-10 05:00:00 3 9 Oeste 38 Oeste 0 -- -- 66
2020-01-10 04:00:00 3.5 7 Sur 21 Este 0 -- -- 68
2020-01-10 03:00:00 4.1 5 Oeste 22 Oeste 0 -- -- 73
2020-01-10 02:00:00 4.6 7 Sudoeste 36 Oeste 0 -- -- 71
2020-01-10 01:00:00 5 10 Oeste 35 Oeste 0 -- -- 71
2020-01-10 00:00:00 5.8 8 Noroeste 34 Noroeste 0 -- -- 74
2020-01-09 23:00:00 7 6 Noroeste 31 Sudoeste 0 -- -- 73
2020-01-09 22:00:00 8.4 8 Noroeste 42 Oeste 0 -- -- 69
2020-01-09 21:00:00 8.5 10 Oeste 32 Oeste 0 -- -- 76
2020-01-09 20:00:00 8.6 14 Noroeste 52 Oeste 0 -- -- 73
2020-01-09 19:00:00 9.2 14 Noroeste 38 Noroeste 0 -- -- 77
2020-01-09 18:00:00 10.4 12 Oeste 30 Noroeste 0 -- -- 67
2020-01-09 17:00:00 11.6 3 Oeste 17 Oeste 0 -- -- 62
2020-01-09 16:00:00 13.4 7 Sudoeste 26 Oeste 0 -- -- 52
2020-01-09 15:00:00 11.3 9 Oeste 28 Oeste 0 -- -- 62
2020-01-09 14:00:00 12.4 10 Oeste 32 Oeste 0 -- -- 48
2020-01-09 13:00:00 11.9 3 Este 10 Nordeste 0 -- -- 43
2020-01-09 12:00:00 8.1 3 Nordeste 6 Este 0 -- -- 53
2020-01-09 11:00:00 5.7 4 Este 8 Este 0 -- -- 63
2020-01-09 10:00:00 0.2 0 Calma 3 Oeste 0 -- -- 87
2020-01-09 09:00:00 -2.5 0 Calma 4 Oeste 0 -- -- 92
2020-01-09 08:00:00 -2.7 0 Calma 4 Sur 0 -- -- 90
2020-01-09 07:00:00 -2.4 0 Calma 3 Sudoeste 0 -- -- 88
2020-01-09 06:00:00 -2.1 2 Sudoeste 4 Sudoeste 0 -- -- 87
2020-01-09 05:00:00 -1.9 2 Sudoeste 3 Sudoeste 0 -- -- 87
2020-01-09 04:00:00 -2 0 Calma 3 Sudoeste 0 -- -- 86
2020-01-09 03:00:00 -1.6 0 Calma 3 Sudoeste 0 -- -- 85
2020-01-09 02:00:00 -1.1 0 Calma 3 Sudoeste 0 -- -- 83
2020-01-09 01:00:00 -0.9 0 Calma 3 Sudoeste 0 -- -- 83
2020-01-09 00:00:00 -0.3 0 Calma 3 Sudoeste 0 -- -- 80
2020-01-08 23:00:00 0.6 2 Sudoeste 4 Oeste 0 -- -- 76
2020-01-08 22:00:00 1 2 Sudoeste 3 Sudoeste 0 -- -- 75
2020-01-08 21:00:00 1.9 2 Sudoeste 3 Sudoeste 0 -- -- 72
2020-01-08 20:00:00 3.6 0 Calma 5 Sur 0 -- -- 66
2020-01-08 19:00:00 5.7 2 Sudoeste 8 Norte 0 -- -- 60
2020-01-08 18:00:00 9.7 2 Norte 15 Norte 0 -- -- 47
2020-01-08 17:00:00 15.7 5 Nordeste 17 Nordeste 0 -- -- 32
2020-01-08 16:00:00 17.4 7 Nordeste 16 Nordeste 0 -- -- 33
2020-01-08 15:00:00 18.8 4 Nordeste 10 Norte 0 -- -- 27
2020-01-08 14:00:00 18.9 4 Este 10 Sudeste 0 -- -- 30
2020-01-08 13:00:00 17.7 2 Este 5 Este 0 -- -- 24
2020-01-08 12:00:00 14.4 0 Calma 4 Nordeste 0 -- -- 24
2020-01-08 11:00:00 8.2 2 Sur 5 Sudoeste 0 -- -- 44
2020-01-08 10:00:00 2.2 0 Calma 5 Este 0 -- -- 58
2020-01-08 09:00:00 -0.6 0 Calma 4 Sudoeste 0 -- -- 65
2020-01-08 08:00:00 -0.9 0 Calma 5 Sudoeste 0 -- -- 61
2020-01-08 07:00:00 -0.7 2 Sudoeste 5 Sudoeste 0 -- -- 53
2020-01-08 06:00:00 -1.1 3 Sudoeste 5 Sudoeste 0 -- -- 59
2020-01-08 05:00:00 -0.7 0 Calma 5 Sudoeste 0 -- -- 59
2020-01-08 04:00:00 -0.3 3 Sudoeste 7 Sudoeste 0 -- -- 54
2020-01-08 03:00:00 -0.2 3 Sudoeste 6 Sudoeste 0 -- -- 53
2020-01-08 02:00:00 0.5 0 Calma 5 Noroeste 0 -- -- 56
2020-01-08 01:00:00 -0.2 2 Oeste 8 Oeste 0 -- -- 59
2020-01-08 00:00:00 0.3 0 Calma 6 Sudoeste 0 -- -- 61
2020-01-07 23:00:00 0.8 2 Sudoeste 9 Sudoeste 0 -- -- 57
2020-01-07 22:00:00 0.6 3 Sudoeste 6 Oeste 0 -- -- 54
2020-01-07 21:00:00 0.9 2 Oeste 9 Sur 0 -- -- 56
2020-01-07 20:00:00 1.5 2 Sudoeste 5 Sudoeste 0 -- -- 53
2020-01-07 19:00:00 3.6 2 Oeste 6 Sudoeste 0 -- -- 52
2020-01-07 18:00:00 7.5 2 Sudoeste 4 Sur 0 -- -- 41
2020-01-07 17:00:00 16.9 0 Calma 10 Sudeste 0 -- -- 23
2020-01-07 16:00:00 18.2 2 Sudoeste 15 Este 0 -- -- 17
2020-01-07 15:00:00 18.8 3 Nordeste 10 Nordeste 0 -- -- 16
2020-01-07 14:00:00 18.2 2 Sudeste 6 Sudeste 0 -- -- 16
2020-01-07 13:00:00 15.9 0 Calma 5 Sudeste 0 -- -- 22
2020-01-07 12:00:00 11.2 0 Calma 5 Sudeste 0 -- -- 32
2020-01-07 11:00:00 5.9 0 Calma 3 Oeste 0 -- -- 50
2020-01-07 10:00:00 -0.5 0 Calma 4 Sudoeste 0 -- -- 69
2020-01-07 09:00:00 -3.4 2 Oeste 4 Oeste 0 -- -- 71
2020-01-07 08:00:00 -3.7 0 Calma 4 Oeste 0 -- -- 71
2020-01-07 07:00:00 -3.7 0 Calma 3 Sudoeste 0 -- -- 73
2020-01-07 06:00:00 -3.4 0 Calma 4 Sudoeste 0 -- -- 73
2020-01-07 05:00:00 -2.9 2 Oeste 4 Oeste 0 -- -- 70
2020-01-07 04:00:00 -2.7 2 Sudoeste 4 Sudoeste 0 -- -- 70
2020-01-07 03:00:00 -2.5 0 Calma 4 Sudoeste 0 -- -- 69
2020-01-07 02:00:00 -2.4 0 Calma 4 Sudoeste 0 -- -- 70
2020-01-07 01:00:00 -2.1 2 Sudoeste 4 Oeste 0 -- -- 68
2020-01-07 00:00:00 -1.6 2 Sudoeste 4 Sudoeste 0 -- -- 67
2020-01-06 23:00:00 -0.6 0 Calma 6 Sur 0 -- -- 64
2020-01-06 22:00:00 0 3 Sudoeste 8 Sur 0 -- -- 62
2020-01-06 21:00:00 0.5 2 Sudoeste 9 Sudoeste 0 -- -- 67
2020-01-06 20:00:00 2.4 4 Sur 10 Sur 0 -- -- 60
2020-01-06 19:00:00 2.5 2 Sudoeste 5 Sudoeste 0 -- -- 62
2020-01-06 18:00:00 5.3 2 Sudoeste 3 Sudoeste 0 -- -- 60
2020-01-06 17:00:00 15.5 0 Calma 8 Nordeste 0 -- -- 32
2020-01-06 16:00:00 16.2 4 Nordeste 9 Nordeste 0 -- -- 26
2020-01-06 15:00:00 16.3 3 Nordeste 9 Este 0 -- -- 25
2020-01-06 14:00:00 14.8 4 Nordeste 9 Nordeste 0 -- -- 25
2020-01-06 13:00:00 13.6 2 Nordeste 5 Nordeste 0 -- -- 26
2020-01-06 12:00:00 10.5 0 Calma 4 Nordeste 0 -- -- 39
2020-01-06 11:00:00 5.2 0 Calma 2 Sudeste 0 -- -- 57
2020-01-06 10:00:00 -0.7 0 Calma 4 Sudoeste 0 -- -- 78